EYVI/VNO METAR and TAF weather

Enter ICAO airport designator
Station Type Date Time Source
EYVI METAR 2021/05/13 06:20 UTC NOAA

EYVI 130620Z 03009KT 010V070 9999 VCSH BKN015CB BKN051 12/10 Q1005 NOSIG


Station Type Date Time Source
EYVI Decoded METAR 2021/05/13 06:20 UTC NOAA

Vilnius, Lithuania (EYVI) 54-38N 025-06E 156M
May 13, 2021 - 02:20 AM EDT / 2021.05.13 0620 UTC
Wind: from the NNE (030 degrees) at 10 MPH (9 KT) (direction variable):0
Visibility: greater than 7 mile(s):0
Sky conditions: mostly cloudy
Weather: showers in the vicinity; Cumulonimbus clouds observed
Temperature: 53 F (12 C)
Dew Point: 50 F (10 C)
Relative Humidity: 87%
Pressure (altimeter): 29.68 in. Hg (1005 hPa)
ob: EYVI 130620Z 03009KT 010V070 9999 VCSH BKN015CB BKN051 12/10 Q1005 NOSIG
cycle: 6

Station Type Date Time Source
EYVI TAF 2021/05/13 06:03 UTC NOAA

TAF EYVI 130500Z 1306/1406 VRB05KT 9000 OVC020
TEMPO 1306/1311 5000 SHRA BKN010 BKN015CB
TEMPO 1311/1318 12015G25KT 3000 TSRA BKN005 BKN012CB
TEMPO 1318/1406 11015KT 5000 SHRA BKN005 BKN015CB

Example: see airport list